Meath Environmental Platform

Observations for Trim Patrick St

Time AQI Temp °C Hum % Pres Pa CO μg/m³ H₂S μg/m³ NO μg/m³ NO₂ μg/m³ O₃ μg/m³ SO₂ μg/m³ PM1 μg/m³ PM2.5 μg/m³ PM10 μg/m³
Saturday 1 August 2026
10:43 1 25.2 43 68,928 0.14 0 1.89 4.9 41.17 5.42 7.14 13.83 15.21
10:42 1 25.1 42 68,912 0.21 0 1.94 4.32 28.72 5.08 7.14 15.48 17.03
10:41 1 25.1 47 68,920 0.2 0 1.92 3.21 15.6 6.44 8 14.31 15.74
10:40 1 24.9 44 68,904 0.23 0 1.96 6.1 15.83 4.33 6.29 12.97 14.26
10:39 1 24.8 43 68,906 0.21 0 1.96 5.58 32.3 5.36 5.43 11.52 12.67
10:38 1 24.6 45 68,910 0.2 0 2.11 3.53 46.08 5.59 6.29 12.15 13.36
10:37 1 24.6 46 68,922 0.15 0 2.14 7.37 59.39 5.57 6.29 11.27 12.4
10:36 1 24.5 44 68,934 0.2 0 2 1.83 13.83 3.73 5.43 10.69 11.76
10:35 1 24.4 44 68,949 0.22 0 2.01 1.89 7.7 5.84 6.29 12.2 13.42
10:34 1 24.3 46 68,971 0.23 0 2.1 1.36 16.82 4.83 6.29 12.09 13.3
10:33 1 24.2 46 68,997 0.23 0 2.2 7.11 49.13 5.95 5.43 12.04 13.24
10:32 1 24 47 69,023 0.17 0 2.32 11.17 57.37 4.61 5.43 12.74 14.02
10:31 1 23.9 49 69,049 0.18 0 2.41 5.48 31.13 5.14 9.71 17.23 18.95
10:30 1 23.7 50 69,090 0.15 0 2.57 5.68 37.35 4.3 9.71 17.89 19.68
10:29 1 23.5 50 69,112 0.15 0 2.7 7.17 39.33 4.97 8.86 18.6 18.9
10:28 1 23.4 48 69,139 0.11 0 2.38 8.15 51.55 4.01 8 16.56 18.22
10:27 1 23.2 51 69,169 0.12 0 2.82 7.25 49.03 4.35 9.71 18.56 20.42
10:26 1 23.1 51 69,220 0.12 0 2.81 7.24 58.51 4.69 9.71 20.02 22.02
10:25 1 22.9 49 69,286 0.1 0 2.67 4.72 40.13 3.78 9.71 18.71 20.59
10:24 1 22.8 49 69,371 0.07 0 2.65 6.44 59.27 3.97 8.86 14.88 16.37